Orford, NH

3:58 AM EDT on September 05, 2015 (GMT -0400)
Mtn Graphics Photography | | Change Station
CLOSE
Current Station
Personal Weather Station
Location: Fairlee, VT
Elevation: 446 ft
Nearby Weather Stations

Elev 446 ft 43.93 °N, 72.12 °W | Updated 4 minutes ago

Fog
Fog
55.3 °F
Feels Like 55.3 °F
N
0.0
Wind Variable Wind from North

Today
High -- | Low -- °F
--% Chance of Precip.
Yesterday
High -- | Low -- °F
Precip. -- in
6:15 AM 7:17 PM
Waning Gibbous, 51% visible
Pressure 30.28 in
Visibility 0.2 miles
Clouds Overcast 100 ft
Dew Point 52 °F
Humidity 90%
Rainfall Not available.
Snow Depth Not available.
UV 0 out of 12
Pollen 7.90 out of 12
Air Quality Not available.
Flu Activity Not available.
METAR K1P1 050755Z AUTO 00000KT 1/4SM FG OVC001 10/10 A3028 RMK AO2 T01030098
Pressure 30.28 in
Visibility 0.2 miles
Clouds Overcast 100 ft
Dew Point 52 °F
Humidity 90%
Rainfall Not available.
Snow Depth Not available.
UV 0 out of 12
Pollen 7.90 out of 12
Air Quality Not available.
Flu Activity Not available.
METAR K1P1 050755Z AUTO 00000KT 1/4SM FG OVC001 10/10 A3028 RMK AO2 T01030098

10-Day Weather Forecast

×

Almanac

Astronomy

Sep. 05, 2015 Rise Set
Actual Time
Civil Twilight
Nautical Twilight
Astronomical Twilight
Moon
Length of Visible Light
Length of Day
Tomorrow will be .
, % of the Moon is Illuminated

Today's Extremes

State Highs State Lows

Community

WunderPhotos

Upload Photos

1,852,437 photos uploaded!

WunderBlogs® & News

Nearby

Air Quality

  Air Quality AQ Index Pollutant
Not available.

Snow Depth

Station Depth Elevation

Earthquake Activity

City Distance Mag. Time & Date
Minimum magnitude displayed is 2.5.

Coastal Water Temperatures

Place Temperature

Stations

Nearby Weather Stations

Station Location Temp. Windchill Dew Point Humidity Wind Precip. Elev Updated Type